Time;durP1;ratioP1;P1;durP2;ratioP2;P2;SDS_P1;SDS_P2;PMS_P1;PMS_P2;Temp;Humidity;BMP_temperature;BMP_pressure;BME280_temperature;BME280_humidity;BME280_pressure;Samples;Min_cycle;Max_cycle;Signal;HPM_P1;HPM_P2
2023/07/03 00:00:45;;;;;;;5.15;2.38;;;;;;;21.93;53.45;100973.66;5016383;28;20038;-52
2023/07/03 00:03:16;;;;;;;6.10;2.67;;;;;;;21.94;53.41;100982.66;5014505;28;20172;-52
2023/07/03 00:05:46;;;;;;;5.70;2.72;;;;;;;21.92;53.69;100976.56;5015761;28;20495;-52
2023/07/03 00:08:13;;;;;;;4.22;2.45;;;;;;;21.92;53.62;100984.72;5017403;28;20038;-52
2023/07/03 00:10:38;;;;;;;4.35;2.67;;;;;;;21.91;53.74;100962.16;5017384;28;20036;-52
2023/07/03 00:13:04;;;;;;;5.68;2.55;;;;;;;21.91;53.25;100972.16;5019501;28;20431;-52
2023/07/03 00:15:29;;;;;;;4.60;2.63;;;;;;;21.91;53.02;100972.16;5013675;28;20123;-52
2023/07/03 00:17:55;;;;;;;5.57;2.97;;;;;;;21.91;53.38;100961.31;5019497;28;20084;-52
2023/07/03 00:20:20;;;;;;;4.10;2.50;;;;;;;21.91;53.15;100966.72;5019620;28;20029;-52
2023/07/03 00:22:51;;;;;;;4.85;2.17;;;;;;;21.90;53.60;100957.75;5017205;28;20022;-51
2023/07/03 00:25:17;;;;;;;5.57;2.87;;;;;;;21.91;53.33;100955.88;5019211;28;20033;-52
2023/07/03 00:27:43;;;;;;;4.95;2.55;;;;;;;21.90;53.22;100970.47;5020241;28;20280;-52
2023/07/03 00:30:09;;;;;;;5.95;2.60;;;;;;;21.89;53.36;100963.34;5016310;28;20476;-52
2023/07/03 00:32:34;;;;;;;3.75;2.50;;;;;;;21.89;53.48;100964.19;5021374;28;20452;-52
2023/07/03 00:35:00;;;;;;;5.88;2.30;;;;;;;21.90;53.47;100956.91;5015497;28;20092;-52
2023/07/03 00:37:26;;;;;;;5.05;2.60;;;;;;;21.88;53.14;100962.50;5019530;28;20084;-52
2023/07/03 00:39:52;;;;;;;4.68;2.45;;;;;;;21.88;53.14;100965.22;5017004;28;20065;-52
2023/07/03 00:42:17;;;;;;;4.97;2.50;;;;;;;21.88;53.34;100967.09;5015717;28;20119;-52
2023/07/03 00:44:42;;;;;;;3.95;2.15;;;;;;;21.87;53.25;100971.63;5017146;28;20037;-52
2023/07/03 00:47:10;;;;;;;6.43;2.60;;;;;;;21.87;53.21;100966.22;5020058;28;20037;-51
2023/07/03 00:49:36;;;;;;;6.13;2.55;;;;;;;21.87;53.25;100960.81;5023265;28;20049;-52
2023/07/03 00:52:02;;;;;;;4.78;2.50;;;;;;;21.86;53.10;100959.13;5015756;28;20030;-52
2023/07/03 00:54:28;;;;;;;3.90;2.05;;;;;;;21.86;52.69;100965.38;5025091;28;20033;-51
2023/07/03 00:56:53;;;;;;;4.55;2.53;;;;;;;21.85;53.03;100955.53;5017019;28;20025;-52
2023/07/03 00:59:19;;;;;;;4.82;2.72;;;;;;;21.85;52.68;100954.69;5015452;28;20056;-51
2023/07/03 01:01:50;;;;;;;5.60;2.83;;;;;;;21.84;52.81;100953.88;5019893;28;20034;-52
2023/07/03 01:04:24;;;;;;;5.18;2.65;;;;;;;21.84;52.62;100950.31;5018488;28;20034;-51
2023/07/03 01:06:57;;;;;;;6.80;2.55;;;;;;;21.84;53.01;100951.16;5017574;28;20107;-52
2023/07/03 01:09:27;;;;;;;5.15;2.35;;;;;;;21.83;52.76;100960.28;5020514;28;20081;-52
2023/07/03 01:11:54;;;;;;;4.47;2.22;;;;;;;21.83;52.90;100945.91;5018887;28;20024;-52
2023/07/03 01:14:22;;;;;;;5.57;2.35;;;;;;;21.82;52.56;100950.47;5019161;28;20034;-52
2023/07/03 01:16:49;;;;;;;4.10;2.15;;;;;;;21.82;52.50;100946.94;5014283;28;20038;-51
2023/07/03 01:19:22;;;;;;;5.72;2.45;;;;;;;21.82;52.72;100946.94;5015786;28;20510;-52
2023/07/03 01:21:56;;;;;;;3.85;2.35;;;;;;;21.82;52.74;100955.91;5022103;28;20507;-52
2023/07/03 01:24:31;;;;;;;7.93;2.88;;;;;;;21.81;52.46;100954.19;5018983;28;20467;-51
2023/07/03 01:26:58;;;;;;;5.15;2.40;;;;;;;21.82;52.81;100957.78;5019080;28;20092;-52
2023/07/03 01:29:24;;;;;;;4.93;2.40;;;;;;;21.79;52.24;100950.81;5016811;28;20060;-52
2023/07/03 01:31:50;;;;;;;5.00;2.30;;;;;;;21.80;52.67;100952.50;5024954;28;20026;-52
2023/07/03 01:34:17;;;;;;;4.45;2.33;;;;;;;21.80;52.10;100957.06;5020617;28;20029;-52
2023/07/03 01:36:42;;;;;;;5.88;2.38;;;;;;;21.79;52.18;100952.69;5023553;28;20065;-50
2023/07/03 01:39:08;;;;;;;5.75;2.35;;;;;;;21.79;52.27;100956.22;5020394;28;20056;-52
2023/07/03 01:41:34;;;;;;;3.92;2.00;;;;;;;21.79;52.03;100955.38;5026255;28;20064;-52
2023/07/03 01:44:00;;;;;;;3.78;2.17;;;;;;;21.78;52.53;100953.69;5029509;28;20033;-51
2023/07/03 01:46:25;;;;;;;6.53;2.38;;;;;;;21.78;52.29;100948.25;5021597;28;20538;-52
2023/07/03 01:48:51;;;;;;;6.60;2.50;;;;;;;21.76;52.41;100936.75;5020652;28;20036;-52
2023/07/03 01:51:25;;;;;;;4.30;2.17;;;;;;;21.77;52.48;100942.00;5025095;28;20054;-52
2023/07/03 01:54:14;;;;;;;6.15;2.63;;;;;;;21.79;52.35;100941.84;5022990;28;20375;-51
2023/07/03 01:56:43;;;;;;;6.13;2.38;;;;;;;21.76;52.25;100937.59;5023837;28;20456;-52
2023/07/03 01:59:11;;;;;;;6.47;2.38;;;;;;;21.75;52.17;100944.03;5026450;28;20397;-52
2023/07/03 02:01:42;;;;;;;5.07;2.22;;;;;;;21.76;52.57;100943.03;5018411;28;20025;-52
2023/07/03 02:04:19;;;;;;;5.20;2.33;;;;;;;21.76;52.55;100939.44;5024207;28;20084;-52
2023/07/03 02:06:47;;;;;;;4.47;2.17;;;;;;;21.73;52.42;100935.22;5017686;28;20371;-51
2023/07/03 02:09:13;;;;;;;5.93;1.95;;;;;;;21.74;52.15;100938.78;5018420;28;20037;-51
2023/07/03 02:11:39;;;;;;;3.70;1.88;;;;;;;21.73;52.03;100940.66;5018575;28;20075;-51
2023/07/03 02:14:05;;;;;;;5.13;2.38;;;;;;;21.73;52.43;100942.50;5019274;28;20069;-51
2023/07/03 02:16:30;;;;;;;4.88;2.22;;;;;;;21.73;52.28;100940.66;5023657;28;20121;-51
2023/07/03 02:18:56;;;;;;;3.60;1.98;;;;;;;21.72;52.34;100944.34;5020152;28;20488;-51
2023/07/03 02:21:22;;;;;;;4.78;2.55;;;;;;;21.72;52.27;100935.38;5018371;28;20119;-51
2023/07/03 02:23:47;;;;;;;4.43;2.40;;;;;;;21.71;51.74;100933.72;5023467;28;20503;-50
2023/07/03 02:26:14;;;;;;;6.93;2.78;;;;;;;21.71;52.27;100939.97;5019469;28;20511;-51
2023/07/03 02:28:40;;;;;;;6.63;2.17;;;;;;;21.71;51.97;100929.13;5021953;28;20075;-49
2023/07/03 02:31:05;;;;;;;4.72;2.38;;;;;;;21.68;51.99;100926.75;5016943;28;20037;-51
2023/07/03 02:33:31;;;;;;;7.03;1.98;;;;;;;21.69;52.23;100925.75;5020976;28;20041;-50
2023/07/03 02:35:57;;;;;;;5.80;2.50;;;;;;;21.69;52.20;100923.03;5019147;28;20480;-52
2023/07/03 02:38:22;;;;;;;5.85;2.13;;;;;;;21.67;51.64;100923.19;5019442;28;20036;-51
2023/07/03 02:40:48;;;;;;;5.43;2.30;;;;;;;21.69;52.18;100925.75;5019655;28;20554;-52
2023/07/03 02:43:14;;;;;;;4.85;2.15;;;;;;;21.69;51.72;100919.47;5022674;28;20030;-51
2023/07/03 02:45:41;;;;;;;5.90;2.42;;;;;;;21.67;51.92;100914.22;5021197;28;20116;-51
2023/07/03 02:48:08;;;;;;;4.43;2.10;;;;;;;21.67;51.68;100927.78;5032635;28;20055;-53
2023/07/03 02:50:34;;;;;;;6.68;2.60;;;;;;;21.67;51.98;100911.53;5018326;28;20036;-51
2023/07/03 02:53:00;;;;;;;6.07;2.25;;;;;;;21.66;51.80;100915.22;5019744;28;20112;-49
2023/07/03 02:55:25;;;;;;;5.00;2.30;;;;;;;21.65;51.55;100908.97;5022785;28;20044;-52
2023/07/03 02:57:51;;;;;;;6.85;2.42;;;;;;;21.65;51.47;100908.97;5016834;28;20484;-52
2023/07/03 03:00:17;;;;;;;7.00;2.78;;;;;;;21.65;51.49;100914.38;5021682;28;20100;-52
2023/07/03 03:02:44;;;;;;;8.18;2.75;;;;;;;21.64;51.34;100912.69;5019973;28;20030;-51
2023/07/03 03:05:09;;;;;;;5.93;2.65;;;;;;;21.64;51.46;100907.25;5020338;28;20136;-52
2023/07/03 03:07:36;;;;;;;5.50;2.85;;;;;;;21.64;51.32;100906.41;5022841;28;20524;-52
2023/07/03 03:10:01;;;;;;;5.50;2.17;;;;;;;21.64;51.35;100906.41;5017424;28;20034;-52
2023/07/03 03:12:27;;;;;;;5.68;2.28;;;;;;;21.64;51.15;100907.25;5022096;28;20048;-52
2023/07/03 03:14:52;;;;;;;6.40;2.72;;;;;;;21.64;51.87;100904.56;5023299;28;20036;-52
2023/07/03 03:17:17;;;;;;;5.97;2.40;;;;;;;21.63;51.69;100908.28;5015367;28;20030;-52
2023/07/03 03:19:43;;;;;;;6.40;2.30;;;;;;;21.63;51.44;100904.75;5013525;28;20506;-52
2023/07/03 03:22:09;;;;;;;6.30;2.17;;;;;;;21.63;51.41;100902.03;5018784;28;20034;-52
2023/07/03 03:24:34;;;;;;;7.32;2.75;;;;;;;21.63;51.54;100904.75;5014080;28;20046;-50
2023/07/03 03:27:05;;;;;;;7.93;2.50;;;;;;;21.61;51.60;100898.63;5016516;28;20056;-52
2023/07/03 03:29:30;;;;;;;5.10;2.13;;;;;;;21.61;51.17;100901.34;5014884;28;20034;-52
2023/07/03 03:31:56;;;;;;;4.00;2.15;;;;;;;21.60;51.34;100905.06;5016807;28;20415;-52
2023/07/03 03:34:21;;;;;;;6.40;2.20;;;;;;;21.61;51.52;100901.34;5019073;28;20095;-52
2023/07/03 03:36:46;;;;;;;5.30;2.03;;;;;;;21.60;51.33;100902.38;5019506;28;20112;-52
2023/07/03 03:39:12;;;;;;;6.07;2.60;;;;;;;21.59;51.40;100900.66;5017020;28;20033;-51
2023/07/03 03:41:38;;;;;;;5.60;2.83;;;;;;;21.58;51.51;100907.94;5021239;28;20112;-52
2023/07/03 03:44:03;;;;;;;7.55;2.53;;;;;;;21.58;51.61;100899.81;5022016;28;20079;-52
2023/07/03 03:46:29;;;;;;;4.45;2.40;;;;;;;21.58;51.38;100904.41;5018387;28;20079;-52
2023/07/03 03:48:54;;;;;;;11.02;2.67;;;;;;;21.58;51.30;100904.41;5023364;28;20174;-52
2023/07/03 03:51:20;;;;;;;6.70;2.33;;;;;;;21.58;51.17;100901.69;5017284;28;20041;-52
2023/07/03 03:53:45;;;;;;;6.70;2.40;;;;;;;21.58;51.56;100907.09;5023703;28;20114;-52
2023/07/03 03:56:10;;;;;;;4.50;2.30;;;;;;;21.57;51.63;100905.41;5018719;28;20384;-50
2023/07/03 03:58:36;;;;;;;5.40;2.17;;;;;;;21.57;50.94;100905.41;5019067;28;20046;-52
2023/07/03 04:01:01;;;;;;;6.80;2.55;;;;;;;21.56;51.46;100901.84;5018119;28;20026;-50
2023/07/03 04:03:27;;;;;;;6.72;2.38;;;;;;;21.56;51.07;100906.44;5019387;28;20030;-52
2023/07/03 04:05:52;;;;;;;7.30;2.60;;;;;;;21.55;51.14;100907.44;5016845;28;20029;-51
2023/07/03 04:08:18;;;;;;;5.47;2.40;;;;;;;21.55;51.45;100905.59;5018575;28;20483;-52
2023/07/03 04:10:43;;;;;;;4.65;2.03;;;;;;;21.55;51.21;100908.31;5017478;28;20040;-52
2023/07/03 04:13:12;;;;;;;4.97;2.10;;;;;;;21.54;51.56;100911.16;5022565;28;20437;-52
2023/07/03 04:16:07;;;;;;;7.78;2.53;;;;;;;21.55;51.28;100910.13;5017024;28;20080;-52
2023/07/03 04:18:33;;;;;;;7.43;2.90;;;;;;;21.54;51.10;100909.31;5021848;28;20040;-52
2023/07/03 04:20:59;;;;;;;4.53;2.13;;;;;;;21.55;50.91;100913.72;5024851;28;20383;-52
2023/07/03 04:23:25;;;;;;;4.78;2.17;;;;;;;21.54;50.78;100912.00;5020950;28;20036;-51
2023/07/03 04:25:51;;;;;;;7.45;2.20;;;;;;;21.54;51.14;100912.00;5017785;28;20030;-51
2023/07/03 04:28:21;;;;;;;5.03;2.30;;;;;;;21.54;51.37;100905.75;5016133;28;20026;-52
2023/07/03 04:30:47;;;;;;;6.75;2.42;;;;;;;21.53;51.31;100910.31;5017163;28;20076;-52
2023/07/03 04:33:13;;;;;;;6.20;2.22;;;;;;;21.52;51.30;100914.03;5022685;28;20030;-52
2023/07/03 04:35:38;;;;;;;5.25;2.33;;;;;;;21.52;51.21;100916.75;5013104;28;20032;-51
2023/07/03 04:38:04;;;;;;;5.97;2.35;;;;;;;21.52;50.92;100916.75;5015531;28;20053;-52
2023/07/03 04:40:29;;;;;;;8.30;2.42;;;;;;;21.52;51.15;100913.22;5016705;28;20025;-52
2023/07/03 04:42:55;;;;;;;7.63;2.72;;;;;;;21.52;51.21;100922.16;5015740;28;20053;-52
2023/07/03 04:45:24;;;;;;;5.80;2.58;;;;;;;21.52;50.80;100926.75;5018688;28;20030;-52
2023/07/03 04:47:51;;;;;;;4.10;2.10;;;;;;;21.50;51.25;100929.63;5023997;28;20028;-52
2023/07/03 04:50:17;;;;;;;5.82;2.67;;;;;;;21.50;50.75;100929.63;5021332;28;20463;-52
2023/07/03 04:52:43;;;;;;;7.30;2.75;;;;;;;21.50;51.21;100932.34;5017816;28;20052;-52
2023/07/03 04:55:11;;;;;;;6.15;2.33;;;;;;;21.49;50.80;100930.63;5016730;28;20026;-52
2023/07/03 04:57:38;;;;;;;7.43;2.28;;;;;;;21.50;50.98;100939.63;5015545;28;20033;-52
2023/07/03 05:00:17;;;;;;;4.22;2.30;;;;;;;21.48;51.28;100940.63;5016237;28;20105;-51
2023/07/03 05:02:44;;;;;;;6.57;2.65;;;;;;;21.48;50.92;100935.19;5013327;28;20030;-52
2023/07/03 05:05:11;;;;;;;7.43;2.60;;;;;;;21.48;51.08;100943.34;5019233;28;20029;-52
2023/07/03 05:07:40;;;;;;;9.52;2.72;;;;;;;21.47;50.83;100943.50;5023582;28;20044;-52
2023/07/03 05:10:07;;;;;;;5.38;2.15;;;;;;;21.47;50.73;100941.63;5019552;28;20041;-52
2023/07/03 05:12:33;;;;;;;5.43;2.33;;;;;;;21.48;50.98;100942.50;5017224;28;20049;-52
2023/07/03 05:14:59;;;;;;;6.65;2.63;;;;;;;21.47;50.95;100955.16;5017541;28;20133;-53
2023/07/03 05:17:24;;;;;;;7.72;2.97;;;;;;;21.48;51.28;100946.03;5019481;28;20127;-52
2023/07/03 05:19:50;;;;;;;6.47;2.58;;;;;;;21.50;51.45;100948.59;5021376;28;20120;-51
2023/07/03 05:22:15;;;;;;;10.07;2.58;;;;;;;21.49;51.40;100952.28;5019068;28;20049;-52
2023/07/03 05:24:41;;;;;;;5.60;2.10;;;;;;;21.50;51.02;100953.16;5022541;28;20053;-51
2023/07/03 05:27:06;;;;;;;5.75;2.33;;;;;;;21.50;51.49;100953.16;5018594;28;20487;-51
2023/07/03 05:29:32;;;;;;;8.88;2.38;;;;;;;21.48;51.01;100956.88;5021303;28;20115;-51
2023/07/03 05:32:00;;;;;;;8.48;2.42;;;;;;;21.50;50.99;100958.59;5029623;28;20109;-50
2023/07/03 05:34:26;;;;;;;6.72;2.63;;;;;;;21.49;51.46;100968.56;5017998;28;20043;-52
2023/07/03 05:36:51;;;;;;;6.93;2.40;;;;;;;21.50;51.17;100959.44;5022587;28;20033;-52
2023/07/03 05:39:17;;;;;;;7.22;2.58;;;;;;;21.50;51.59;100961.28;5016169;28;20391;-52
2023/07/03 05:41:42;;;;;;;4.68;2.33;;;;;;;21.50;51.47;100964.84;5020430;28;20115;-52
2023/07/03 05:44:07;;;;;;;6.63;2.53;;;;;;;21.52;50.99;100964.69;5022099;28;20021;-52
2023/07/03 05:46:33;;;;;;;7.75;2.55;;;;;;;21.51;51.27;100965.69;5027467;28;20026;-53
2023/07/03 05:48:58;;;;;;;7.18;2.78;;;;;;;21.51;51.15;100976.53;4991278;28;20057;-51
2023/07/03 05:51:24;;;;;;;6.28;2.83;;;;;;;21.50;51.55;100967.56;5018474;28;20044;-52
2023/07/03 05:53:50;;;;;;;6.18;2.42;;;;;;;21.50;51.48;100981.09;5015969;28;20030;-52
2023/07/03 05:56:15;;;;;;;4.57;2.17;;;;;;;21.51;51.24;100981.94;4988853;28;20072;-52
2023/07/03 05:58:41;;;;;;;5.35;2.75;;;;;;;21.51;51.53;100976.53;5019315;28;20034;-52
2023/07/03 06:01:06;;;;;;;5.13;2.75;;;;;;;21.52;51.27;100972.81;5017155;28;20070;-52
2023/07/03 06:03:31;;;;;;;4.10;2.08;;;;;;;21.51;51.65;100977.34;5018228;28;20113;-52
2023/07/03 06:05:57;;;;;;;3.55;2.13;;;;;;;21.51;51.20;100985.47;5014358;28;20041;-52
2023/07/03 06:08:23;;;;;;;6.05;2.38;;;;;;;21.51;51.67;100979.22;5013042;28;20022;-52
2023/07/03 06:10:49;;;;;;;6.05;2.30;;;;;;;21.51;51.22;100982.78;5020038;28;20037;-52
2023/07/03 06:13:14;;;;;;;4.70;2.55;;;;;;;21.52;51.50;100975.53;5018612;28;20057;-52
2023/07/03 06:15:41;;;;;;;5.72;2.22;;;;;;;21.53;51.11;100985.31;5016223;28;20461;-52
2023/07/03 06:18:06;;;;;;;4.30;2.22;;;;;;;21.52;51.28;100983.66;5021362;28;20041;-52
2023/07/03 06:20:33;;;;;;;5.30;2.33;;;;;;;21.52;51.29;100976.34;5021271;28;20068;-52
2023/07/03 06:22:58;;;;;;;4.32;2.28;;;;;;;21.52;51.26;100983.66;5020539;28;20166;-52
2023/07/03 06:25:24;;;;;;;6.07;2.60;;;;;;;21.52;51.16;100986.34;5013430;28;20057;-52
2023/07/03 06:27:49;;;;;;;5.25;2.00;;;;;;;21.53;51.25;100986.16;5022961;28;20113;-51
2023/07/03 06:30:15;;;;;;;7.22;2.42;;;;;;;21.53;51.26;100985.31;5020432;28;20649;-52
2023/07/03 06:32:40;;;;;;;5.13;1.85;;;;;;;21.53;51.20;100977.19;5024734;28;20144;-52
2023/07/03 06:35:06;;;;;;;3.08;1.90;;;;;;;21.53;51.11;100977.19;5020322;28;21042;-52
2023/07/03 06:37:32;;;;;;;4.35;1.90;;;;;;;21.53;51.28;100974.50;5013737;28;20045;-52
2023/07/03 06:39:58;;;;;;;4.82;2.10;;;;;;;21.53;51.21;100983.44;5018522;28;20455;-51
2023/07/03 06:42:23;;;;;;;5.75;2.13;;;;;;;21.53;51.66;100977.19;5019568;28;20033;-51
2023/07/03 06:44:49;;;;;;;4.45;2.33;;;;;;;21.53;51.59;100979.91;5023196;28;20025;-52
2023/07/03 06:47:14;;;;;;;3.75;1.75;;;;;;;21.52;51.48;100972.81;5024765;28;20045;-53
2023/07/03 06:49:39;;;;;;;4.45;1.65;;;;;;;21.53;51.17;100974.50;5020837;28;20087;-52
2023/07/03 06:52:05;;;;;;;5.55;2.15;;;;;;;21.52;51.64;100975.53;5020749;28;20057;-51
2023/07/03 06:54:31;;;;;;;3.47;1.90;;;;;;;21.53;51.35;100969.06;5028954;28;20033;-52
2023/07/03 06:56:56;;;;;;;5.43;2.30;;;;;;;21.51;51.17;100971.94;5019547;28;20080;-52
2023/07/03 06:59:21;;;;;;;4.80;2.25;;;;;;;21.50;51.47;100970.25;5021339;28;20104;-52
2023/07/03 07:01:47;;;;;;;3.35;2.03;;;;;;;21.51;51.34;100968.38;5018262;28;20083;-51
2023/07/03 07:04:12;;;;;;;4.88;2.38;;;;;;;21.52;51.17;100972.81;5019155;28;20412;-50
2023/07/03 07:06:39;;;;;;;15.65;4.38;;;;;;;21.49;51.26;100976.69;5021173;28;20038;-49
2023/07/03 07:09:05;;;;;;;12.60;4.07;;;;;;;21.47;51.57;100987.66;5013667;28;20076;-48
2023/07/03 07:11:33;;;;;;;16.42;4.10;;;;;;;21.43;51.99;100999.00;5018103;28;20117;-50
2023/07/03 07:14:01;;;;;;;13.02;4.35;;;;;;;21.41;52.07;101001.03;5019853;28;20030;-50
2023/07/03 07:16:31;;;;;;;16.38;4.60;;;;;;;21.38;52.28;101002.22;5021241;28;20531;-49
2023/07/03 07:19:00;;;;;;;12.10;3.72;;;;;;;21.35;52.10;100997.09;5020402;28;20041;-48
2023/07/03 07:21:25;;;;;;;13.75;4.35;;;;;;;21.34;51.84;100998.09;5017587;28;20544;-48
2023/07/03 07:23:56;;;;;;;14.23;3.92;;;;;;;21.35;52.09;100998.97;4984575;28;20180;-49
2023/07/03 07:26:24;;;;;;;19.42;4.60;;;;;;;21.34;52.25;101003.53;5024187;28;20076;-47
2023/07/03 07:28:49;;;;;;;11.05;3.95;;;;;;;21.32;52.00;101000.13;5023583;28;20029;-48
2023/07/03 07:31:23;;;;;;;15.30;4.00;;;;;;;21.32;51.94;100994.72;5016492;28;20041;-50
2023/07/03 07:33:48;;;;;;;18.55;4.25;;;;;;;21.32;52.47;100993.88;5025396;28;20155;-47
2023/07/03 07:36:15;;;;;;;16.52;5.18;;;;;;;21.31;52.33;100990.34;5013075;28;20121;-49
2023/07/03 07:38:40;;;;;;;16.88;4.45;;;;;;;21.31;52.28;100997.63;5021188;28;20395;-48
2023/07/03 07:41:06;;;;;;;23.92;4.70;;;;;;;21.31;52.17;100998.44;5021139;28;20044;-49
2023/07/03 07:43:31;;;;;;;11.70;4.10;;;;;;;21.30;52.04;101007.56;5022525;28;20029;-50
2023/07/03 07:45:57;;;;;;;14.90;4.20;;;;;;;21.32;52.04;100997.44;5018049;28;20037;-49
2023/07/03 07:48:29;;;;;;;12.30;3.88;;;;;;;21.32;51.89;100999.28;5058695;28;20730;-50
2023/07/03 07:50:54;;;;;;;13.48;3.83;;;;;;;21.32;52.25;101010.97;5041141;28;20108;-51
2023/07/03 07:53:20;;;;;;;12.15;4.15;;;;;;;21.32;51.93;101016.38;5047242;28;20036;-52
2023/07/03 07:55:45;;;;;;;14.50;4.28;;;;;;;21.31;51.91;101009.28;5036030;28;20033;-51
2023/07/03 07:58:11;;;;;;;14.88;4.20;;;;;;;21.31;51.92;101009.28;5037420;28;20113;-51
2023/07/03 08:00:36;;;;;;;14.57;4.57;;;;;;;21.31;52.02;101001.16;5036556;28;20038;-51
2023/07/03 08:03:02;;;;;;;12.90;4.30;;;;;;;21.29;51.59;101009.44;5041211;28;20060;-49
2023/07/03 08:05:27;;;;;;;12.07;3.90;;;;;;;21.29;51.92;101006.75;5046313;28;20029;-48
2023/07/03 08:07:53;;;;;;;19.50;4.47;;;;;;;21.29;51.65;101014.88;5048744;28;20033;-50
2023/07/03 08:10:19;;;;;;;10.68;3.53;;;;;;;21.28;51.36;101015.03;5038051;28;20033;-50
2023/07/03 08:12:45;;;;;;;9.98;3.50;;;;;;;21.27;51.35;101018.75;5039789;28;20037;-47
2023/07/03 08:15:11;;;;;;;12.23;3.60;;;;;;;21.25;51.44;101005.38;5044579;28;20104;-48
2023/07/03 08:17:37;;;;;;;15.60;3.90;;;;;;;21.27;50.94;101016.88;5035808;28;20052;-50
2023/07/03 08:20:09;;;;;;;11.77;3.75;;;;;;;21.25;51.35;101010.78;5043337;28;20506;-51
2023/07/03 08:22:34;;;;;;;12.93;3.58;;;;;;;21.24;51.34;101017.19;5040583;28;20025;-48
2023/07/03 08:24:59;;;;;;;11.95;3.40;;;;;;;21.26;51.20;101017.03;5045043;28;20622;-51
2023/07/03 08:27:25;;;;;;;12.18;3.45;;;;;;;21.25;51.21;101018.06;5039853;28;20040;-50
2023/07/03 08:29:50;;;;;;;12.55;3.50;;;;;;;21.25;51.39;101018.06;5041061;28;20061;-49
2023/07/03 08:32:16;;;;;;;14.20;3.55;;;;;;;21.25;51.12;101026.19;5038286;28;20025;-51
2023/07/03 08:34:41;;;;;;;14.00;3.83;;;;;;;21.23;51.18;101031.78;5037279;28;20041;-49
2023/07/03 08:37:07;;;;;;;9.68;3.47;;;;;;;21.22;50.97;101030.06;5041964;28;20400;-48
2023/07/03 08:39:32;;;;;;;12.50;3.70;;;;;;;21.22;50.86;101026.50;5036887;28;20537;-51
2023/07/03 08:42:05;;;;;;;10.95;3.00;;;;;;;21.22;50.92;101032.78;5035971;28;20038;-48
2023/07/03 08:44:31;;;;;;;14.38;3.92;;;;;;;21.22;50.83;101031.94;5037731;28;20026;-51
2023/07/03 08:47:01;;;;;;;13.45;3.92;;;;;;;21.20;50.38;101036.66;5037443;28;20038;-49
2023/07/03 08:49:27;;;;;;;12.95;3.88;;;;;;;21.21;50.40;101046.47;5036608;28;20025;-48
2023/07/03 08:51:58;;;;;;;9.43;2.80;;;;;;;21.19;50.40;101038.53;5032616;28;20042;-49
2023/07/03 08:54:28;;;;;;;11.05;3.65;;;;;;;21.20;50.80;101031.25;5037546;28;20475;-48
2023/07/03 08:56:56;;;;;;;11.98;3.13;;;;;;;21.21;50.39;101038.34;5041560;28;20517;-49
2023/07/03 08:59:22;;;;;;;14.88;3.63;;;;;;;21.21;50.31;101033.81;5026610;28;20103;-49
2023/07/03 09:01:59;;;;;;;11.63;3.25;;;;;;;21.21;50.55;101036.50;5021093;28;20468;-47
2023/07/03 09:04:39;;;;;;;10.60;3.97;;;;;;;21.22;50.53;101042.75;5029408;28;20464;-48
2023/07/03 09:07:11;;;;;;;11.02;3.25;;;;;;;21.21;50.58;101033.81;5026389;28;20041;-50
2023/07/03 09:09:49;;;;;;;8.52;3.28;;;;;;;21.21;50.28;101033.81;5022577;28;20073;-50
2023/07/03 09:12:26;;;;;;;11.18;3.42;;;;;;;21.21;50.35;101044.63;5031067;28;20501;-51
2023/07/03 09:14:59;;;;;;;11.45;3.20;;;;;;;21.20;50.29;101042.91;5033658;28;20083;-50
2023/07/03 09:17:26;;;;;;;12.07;3.90;;;;;;;21.20;50.11;101039.38;5023776;28;20360;-50
2023/07/03 09:19:55;;;;;;;10.70;3.42;;;;;;;21.20;50.54;101039.38;5022124;28;20044;-51
2023/07/03 09:22:40;;;;;;;11.55;3.22;;;;;;;21.18;50.54;101036.81;5023965;28;20112;-51
2023/07/03 09:25:10;;;;;;;15.45;3.78;;;;;;;21.19;49.94;101043.06;5023445;28;20450;-50
2023/07/03 09:27:35;;;;;;;14.85;3.70;;;;;;;21.17;49.92;101040.56;5023221;28;20030;-50
2023/07/03 09:30:06;;;;;;;8.65;3.28;;;;;;;21.17;50.49;101040.56;5020873;28;20107;-50
2023/07/03 09:32:33;;;;;;;15.48;3.65;;;;;;;21.17;49.95;101037.84;5023615;28;20475;-51
2023/07/03 09:34:59;;;;;;;16.15;3.50;;;;;;;21.18;50.36;101042.25;5024604;28;20475;-50
2023/07/03 09:37:25;;;;;;;18.30;3.70;;;;;;;21.17;50.29;101039.69;5028469;28;20104;-50
2023/07/03 09:39:53;;;;;;;14.38;3.47;;;;;;;21.16;50.50;101029.88;5027983;28;20120;-49
2023/07/03 09:42:20;;;;;;;12.70;3.45;;;;;;;21.16;50.25;101032.59;5022945;28;20537;-49
2023/07/03 09:44:46;;;;;;;12.80;3.55;;;;;;;21.16;50.63;101043.41;5031617;28;20030;-52
2023/07/03 09:47:45;;;;;;;12.25;3.80;;;;;;;21.20;50.68;101047.50;5023029;28;20103;-49
2023/07/03 09:50:11;;;;;;;15.60;4.50;;;;;;;21.16;50.13;101041.56;5025577;28;20045;-51
2023/07/03 09:52:53;;;;;;;10.70;3.78;;;;;;;21.18;50.42;101046.81;5028265;28;20026;-48
2023/07/03 09:55:19;;;;;;;10.18;3.38;;;;;;;21.17;50.36;101047.81;5024302;28;20088;-50
2023/07/03 09:57:44;;;;;;;10.40;3.70;;;;;;;21.16;50.18;101046.13;5023381;28;20666;-50
2023/07/03 10:00:15;;;;;;;12.10;3.58;;;;;;;21.17;50.54;101053.22;5027582;28;20409;-51
2023/07/03 10:02:42;;;;;;;11.63;4.03;;;;;;;21.15;50.09;101045.28;5025684;28;20025;-47
2023/07/03 10:05:14;;;;;;;12.77;3.95;;;;;;;21.17;50.10;101042.41;5022756;28;20029;-49
2023/07/03 10:07:42;;;;;;;8.35;3.67;;;;;;;21.17;50.10;101040.56;5030363;28;20029;-49
2023/07/03 10:10:12;;;;;;;12.63;3.45;;;;;;;21.18;50.14;101039.53;5026062;28;20112;-51
2023/07/03 10:12:44;;;;;;;14.80;4.25;;;;;;;21.19;50.12;101040.38;5026570;28;20029;-48
2023/07/03 10:15:32;;;;;;;10.93;3.60;;;;;;;21.21;50.29;101041.06;5023049;28;20079;-51
2023/07/03 10:18:03;;;;;;;15.90;4.50;;;;;;;21.19;50.36;101049.38;5027171;28;20017;-51
2023/07/03 10:20:33;;;;;;;13.88;4.03;;;;;;;21.20;50.10;101056.47;5028338;28;20029;-50
2023/07/03 10:23:02;;;;;;;14.55;4.45;;;;;;;21.20;50.28;101055.63;5025799;28;20506;-49
2023/07/03 10:25:32;;;;;;;12.48;3.80;;;;;;;21.18;50.13;101054.94;5025482;28;20487;-50
2023/07/03 10:28:03;;;;;;;11.27;3.80;;;;;;;21.19;49.86;101062.03;5024882;28;20341;-51
2023/07/03 10:30:33;;;;;;;7.82;3.33;;;;;;;21.17;49.88;101059.50;5026217;28;20025;-49
2023/07/03 10:33:03;;;;;;;13.35;4.07;;;;;;;21.17;50.08;101056.81;5025550;28;20103;-49
2023/07/03 10:35:32;;;;;;;13.05;4.22;;;;;;;21.16;49.70;101051.53;5019891;28;20030;-47
2023/07/03 10:38:34;;;;;;;12.18;3.63;;;;;;;21.20;49.49;101050.19;5025421;28;20036;-51
2023/07/03 10:41:09;;;;;;;15.18;4.07;;;;;;;21.19;49.37;101051.19;5020436;28;20117;-50
2023/07/03 10:43:43;;;;;;;11.05;3.75;;;;;;;21.20;48.85;101058.31;5020361;28;20479;-50
2023/07/03 10:46:19;;;;;;;11.02;3.22;;;;;;;21.20;49.30;101050.19;5022363;28;20104;-50
2023/07/03 10:48:47;;;;;;;10.35;3.33;;;;;;;21.19;49.08;101043.94;5023859;28;20119;-48
2023/07/03 10:51:33;;;;;;;12.43;3.50;;;;;;;21.20;48.87;101050.19;5017888;28;20036;-51
2023/07/03 10:54:07;;;;;;;8.07;3.30;;;;;;;21.20;48.63;101045.63;5031024;28;20102;-50
2023/07/03 10:56:44;;;;;;;8.50;3.92;;;;;;;21.20;48.49;101052.91;5019927;28;20061;-51
2023/07/03 10:59:26;;;;;;;11.32;3.72;;;;;;;21.20;48.51;101063.75;5022333;28;20025;-48
2023/07/03 11:02:14;;;;;;;11.27;3.00;;;;;;;21.22;49.06;101059.00;5022705;28;20144;-51
2023/07/03 11:05:25;;;;;;;8.27;3.30;;;;;;;21.24;49.21;101047.00;5019364;28;20037;-51
2023/07/03 11:08:11;;;;;;;10.82;3.60;;;;;;;21.21;48.39;101052.75;5036358;28;20025;-51
2023/07/03 11:11:02;;;;;;;9.88;2.92;;;;;;;21.24;48.84;101046.16;5022860;28;20037;-49
2023/07/03 11:13:49;;;;;;;11.18;3.40;;;;;;;21.26;48.83;101052.25;5021780;28;20025;-49
2023/07/03 11:16:16;;;;;;;11.15;3.13;;;;;;;21.25;48.28;101042.44;5023580;28;20434;-48
2023/07/03 11:18:48;;;;;;;10.68;3.20;;;;;;;21.26;48.33;101052.25;5032468;28;20025;-52
2023/07/03 11:21:41;;;;;;;7.03;2.60;;;;;;;21.28;48.34;101052.94;5019224;28;20033;-50
2023/07/03 11:24:49;;;;;;;8.38;2.70;;;;;;;21.29;48.09;101044.66;5028745;28;20109;-49
2023/07/03 11:27:47;;;;;;;9.93;2.78;;;;;;;21.31;47.90;101052.63;5019675;28;20472;-50